createdAt,value
2018-12-24T00:02:01.519Z,14.31
2018-12-24T00:07:56.504Z,15.35
2018-12-24T00:13:51.524Z,14.68
2018-12-24T00:19:46.497Z,13.58
2018-12-24T00:25:41.508Z,12.15
2018-12-24T00:31:36.535Z,13.12
2018-12-24T00:37:31.560Z,13.62
2018-12-24T00:43:26.539Z,13.12
2018-12-24T00:49:21.548Z,12.48
2018-12-24T00:55:16.542Z,11.13
2018-12-24T01:01:11.523Z,11.8
2018-12-24T01:07:06.541Z,10.09
2018-12-24T01:13:01.555Z,10.3
2018-12-24T01:18:56.547Z,9.95
2018-12-24T01:24:51.573Z,10.79
2018-12-24T01:30:46.575Z,10.3
2018-12-24T01:36:41.542Z,11.69
2018-12-24T01:42:36.569Z,12.03
2018-12-24T01:48:31.635Z,11.99
2018-12-24T01:54:26.562Z,11.67
2018-12-24T02:00:21.575Z,12.53
2018-12-24T02:06:16.575Z,12.88
2018-12-24T02:12:11.557Z,12.44
2018-12-24T02:18:06.599Z,11.57
2018-12-24T02:24:01.616Z,11.92
2018-12-24T02:29:56.592Z,11.53
2018-12-24T02:35:51.590Z,12.26
2018-12-24T02:41:46.599Z,10.87
2018-12-24T02:47:41.613Z,11.64
2018-12-24T02:53:36.616Z,11.13
2018-12-24T02:59:31.671Z,11.96
2018-12-24T03:05:26.625Z,11.43
2018-12-24T03:11:21.601Z,9.43
2018-12-24T03:17:16.643Z,8.34
2018-12-24T03:23:11.620Z,8.29
2018-12-24T03:29:06.629Z,8.63
2018-12-24T03:35:01.677Z,8.79
2018-12-24T03:40:56.611Z,8.83
2018-12-24T03:46:51.655Z,8.95
2018-12-24T03:52:46.623Z,7.67
2018-12-24T03:58:41.646Z,8.04
2018-12-24T04:04:36.655Z,8.36
2018-12-24T04:10:31.672Z,8.72
2018-12-24T04:16:26.655Z,9.11
2018-12-24T04:22:21.670Z,8.25
2018-12-24T04:28:16.656Z,7.42
2018-12-24T04:34:11.692Z,7.35
2018-12-24T04:40:06.676Z,8.67
2018-12-24T04:46:01.706Z,8.17
2018-12-24T04:51:56.679Z,8.14
2018-12-24T04:57:51.692Z,7.88
2018-12-24T05:03:46.717Z,8.14
2018-12-24T05:09:41.693Z,8.44
2018-12-24T05:15:36.708Z,7.8
2018-12-24T05:21:31.696Z,7.94
2018-12-24T05:27:26.708Z,8.2
2018-12-24T05:33:21.713Z,8.18
2018-12-24T05:39:16.743Z,8.24
2018-12-24T05:45:11.743Z,7.77
2018-12-24T05:51:06.765Z,7.51
2018-12-24T05:57:01.772Z,7.3
2018-12-24T06:02:56.712Z,7.32
2018-12-24T06:08:51.709Z,7.18
2018-12-24T06:14:46.740Z,7.09
2018-12-24T06:20:41.707Z,6.77
2018-12-24T06:26:36.748Z,8.15
2018-12-24T06:32:31.713Z,7.53
2018-12-24T06:38:26.770Z,7.46
2018-12-24T06:44:21.774Z,7.66
2018-12-24T06:50:16.752Z,7.97
2018-12-24T06:56:11.775Z,7.86
2018-12-24T07:02:06.779Z,8.04
2018-12-24T07:08:01.771Z,8.51
2018-12-24T07:13:56.761Z,8.73
2018-12-24T07:19:51.792Z,9.31
2018-12-24T07:25:46.769Z,9.04
2018-12-24T07:31:41.818Z,9.37
2018-12-24T07:37:36.794Z,9.5
2018-12-24T07:43:31.813Z,10.76
2018-12-24T07:49:26.805Z,9.72
2018-12-24T07:55:21.816Z,10.84
2018-12-24T08:01:16.855Z,9.66
2018-12-24T08:07:11.879Z,10.14
2018-12-24T08:13:06.773Z,10.17
2018-12-24T08:19:01.810Z,9.72
2018-12-24T08:24:56.822Z,9.69
2018-12-24T08:30:51.832Z,10.63
2018-12-24T08:36:46.804Z,10.72
2018-12-24T08:42:41.924Z,12.77
2018-12-24T08:48:36.829Z,11.45
2018-12-24T08:54:31.848Z,9.68
2018-12-24T09:00:26.892Z,8.45
2018-12-24T09:06:21.843Z,7.58
2018-12-24T09:12:16.846Z,8.28
2018-12-24T09:18:11.812Z,7.24
2018-12-24T09:24:06.876Z,7.74
2018-12-24T09:30:01.839Z,7.45
2018-12-24T09:35:56.869Z,7.02
2018-12-24T09:41:51.849Z,7.77
2018-12-24T09:47:46.845Z,7.11
2018-12-24T09:53:41.864Z,7.89
2018-12-24T09:59:36.839Z,8.16
2018-12-24T10:05:31.861Z,7.18
2018-12-24T10:11:26.879Z,6.27
2018-12-24T10:17:21.886Z,7.82
2018-12-24T10:23:16.863Z,6.6
2018-12-24T10:29:11.872Z,6.91
2018-12-24T10:35:06.909Z,7.36
2018-12-24T10:41:01.903Z,6.39
2018-12-24T10:46:58.449Z,6.95
2018-12-24T10:52:51.881Z,7.18
2018-12-24T10:58:46.887Z,7
2018-12-24T11:04:41.884Z,7.39
2018-12-24T11:10:36.914Z,7.65
2018-12-24T11:16:31.926Z,6.82
2018-12-24T11:22:26.909Z,6.49
2018-12-24T11:28:21.912Z,6.11
2018-12-24T11:34:16.914Z,4.72
2018-12-24T11:40:11.929Z,4.92
2018-12-24T11:46:06.960Z,6.44
2018-12-24T11:52:01.944Z,5.82
2018-12-24T11:57:56.928Z,5.88
2018-12-24T12:03:51.981Z,5.77
2018-12-24T12:09:46.968Z,5.44
2018-12-24T12:15:42.635Z,5.63
2018-12-24T12:21:36.941Z,5.44
2018-12-24T12:27:31.930Z,5.58
2018-12-24T12:33:26.970Z,6.52
2018-12-24T12:39:21.961Z,5.8
2018-12-24T12:45:16.934Z,5.55
2018-12-24T12:51:11.973Z,9.7
2018-12-24T12:57:06.964Z,8.93
2018-12-24T13:03:01.990Z,18.43
2018-12-24T13:08:57.008Z,11.17
2018-12-24T13:14:51.985Z,8.99
2018-12-24T13:20:46.980Z,8.32
2018-12-24T13:26:41.982Z,9.77
2018-12-24T13:32:37.008Z,10.4
2018-12-24T13:38:31.990Z,8.17
2018-12-24T13:44:27.001Z,7.83
2018-12-24T13:50:21.992Z,6.8
2018-12-24T13:56:16.999Z,6.32
2018-12-24T14:02:12.020Z,8.5
2018-12-24T14:08:07.049Z,7.14
2018-12-24T14:14:01.999Z,7.05
2018-12-24T14:19:57.016Z,6.27
2018-12-24T14:25:52.001Z,8.64
2018-12-24T14:31:47.039Z,9.48
2018-12-24T14:37:42.010Z,12.13
2018-12-24T14:43:37.014Z,8.89
2018-12-24T14:49:32.084Z,9.95
2018-12-24T14:55:27.041Z,7.45
2018-12-24T15:01:22.037Z,9.63
2018-12-24T15:07:17.080Z,10.94
2018-12-24T15:13:12.040Z,9.59
2018-12-24T15:19:07.060Z,10.53
2018-12-24T15:25:02.048Z,10.39
2018-12-24T15:30:57.094Z,9.41
2018-12-24T15:36:52.066Z,10.02
2018-12-24T15:42:47.098Z,9.61
2018-12-24T15:48:42.056Z,10.88
2018-12-24T15:54:37.073Z,11.25
2018-12-24T16:00:32.062Z,14.56
2018-12-24T16:06:27.097Z,14.14
2018-12-24T16:12:22.065Z,13.03
2018-12-24T16:18:17.077Z,12.3
2018-12-24T16:24:12.082Z,10.31
2018-12-24T16:30:07.093Z,8.61
2018-12-24T16:36:02.144Z,10.53
2018-12-24T16:41:57.105Z,11.45
2018-12-24T16:47:52.111Z,9.29
2018-12-24T16:53:47.110Z,7.46
2018-12-24T16:59:42.108Z,5.98
2018-12-24T17:05:37.109Z,7.72
2018-12-24T17:11:32.112Z,7.16
2018-12-24T17:17:27.139Z,8.54
2018-12-24T17:23:22.123Z,8.2
2018-12-24T17:29:17.140Z,7.95
2018-12-24T17:35:12.263Z,8.76
2018-12-24T17:41:07.155Z,10.52
2018-12-24T17:47:02.158Z,17.09
2018-12-24T17:52:57.117Z,10.53
2018-12-24T17:58:52.136Z,12.5
2018-12-24T18:04:47.159Z,12.26
2018-12-24T18:10:42.163Z,18.38
2018-12-24T18:16:37.190Z,16.89
2018-12-24T18:22:32.161Z,17.5
2018-12-24T18:28:27.174Z,19.11
2018-12-24T18:34:22.188Z,16.44
2018-12-24T18:40:17.167Z,15.84
2018-12-24T18:46:12.180Z,15.75
2018-12-24T18:52:07.183Z,14.82
2018-12-24T18:58:02.165Z,20.9
2018-12-24T19:03:57.178Z,28.61
2018-12-24T19:09:52.219Z,28.46
2018-12-24T19:15:47.174Z,28.81
2018-12-24T19:21:43.985Z,28.65
2018-12-24T19:27:37.200Z,28.3
2018-12-24T19:33:32.205Z,17.75
2018-12-24T19:39:27.209Z,14.12
2018-12-24T19:45:22.213Z,11.74
2018-12-24T19:51:17.200Z,14.06
2018-12-24T19:57:12.254Z,14
2018-12-24T20:03:07.236Z,10.31
2018-12-24T20:09:02.213Z,9.75
2018-12-24T20:14:57.251Z,6.41
2018-12-24T20:20:52.251Z,5.67
2018-12-24T20:26:47.239Z,6.13
2018-12-24T20:32:42.230Z,6.32
2018-12-24T20:38:37.445Z,5.87
2018-12-24T20:44:32.227Z,4.62
2018-12-24T20:50:27.257Z,3.77
2018-12-24T20:56:22.248Z,3.23
2018-12-24T21:02:17.254Z,2.88
2018-12-24T21:08:12.263Z,2.92
2018-12-24T21:14:07.317Z,2.55
2018-12-24T21:20:02.258Z,2.68
2018-12-24T21:25:57.289Z,2.49
2018-12-24T21:31:52.282Z,1.84
2018-12-24T21:37:47.324Z,2.01
2018-12-24T21:43:42.282Z,1.69
2018-12-24T21:49:37.276Z,1.89
2018-12-24T21:55:32.286Z,2.09
2018-12-24T22:01:27.287Z,2.16
2018-12-24T22:07:22.300Z,1.72
2018-12-24T22:13:17.314Z,2.06
2018-12-24T22:19:12.288Z,1.97
2018-12-24T22:25:07.336Z,1.93
2018-12-24T22:31:02.300Z,2.46
2018-12-24T22:36:57.329Z,2.23
2018-12-24T22:42:52.305Z,2.1
2018-12-24T22:48:47.344Z,2.21
2018-12-24T22:54:42.329Z,2.29
2018-12-24T23:00:37.322Z,2.36
2018-12-24T23:06:32.319Z,1.67
2018-12-24T23:12:27.327Z,2.37
2018-12-24T23:18:22.312Z,2.49
2018-12-24T23:24:17.366Z,1.75
2018-12-24T23:30:12.382Z,2.26
2018-12-24T23:36:07.326Z,2.21
2018-12-24T23:42:02.411Z,1.51
2018-12-24T23:47:57.391Z,1.67
2018-12-24T23:53:52.420Z,3.39
2018-12-24T23:59:47.381Z,3.4
